Time,TemperatureF,DewpointF,PressureIn,WindDirection,WindDirectionDegrees,WindSpeedMPH,WindSpeedGustMPH,Humidity,HourlyPrecipIn,Conditions,Clouds,dailyrainin,SolarRadiationWatts/m^2,SoftwareType,DateUTC
2013-05-03 00:00:00,57.4,40.4,30.19,SE,135,0.0,1.0,53,0.00,,---,0.00,0.00,VWS V14.00,2013-05-03 04:00:00,
2013-05-03 00:30:00,55.6,41.1,30.19,SE,135,0.0,2.0,58,0.00,,---,0.00,0.00,VWS V14.00,2013-05-03 04:30:00,
2013-05-03 01:00:00,54.7,42.0,30.19,East,90,0.0,4.0,62,0.00,,---,0.00,0.00,VWS V14.00,2013-05-03 05:00:00,
2013-05-03 01:30:00,50.6,41.2,30.19,East,90,0.0,2.0,70,0.00,,---,0.00,0.00,VWS V14.00,2013-05-03 05:30:00,
2013-05-03 02:00:00,49.4,41.1,30.19,East,90,0.0,0.0,73,0.00,,---,0.00,0.00,VWS V14.00,2013-05-03 06:00:00,
2013-05-03 02:30:00,47.9,41.0,30.18,East,90,0.0,1.0,77,0.00,,---,0.00,0.00,VWS V14.00,2013-05-03 06:30:00,
2013-05-03 03:00:00,46.9,41.4,30.18,East,90,0.0,1.0,81,0.00,,---,0.00,0.00,VWS V14.00,2013-05-03 07:00:00,
2013-05-03 03:30:00,45.8,40.9,30.18,East,90,0.0,2.0,83,0.00,,---,0.00,0.00,VWS V14.00,2013-05-03 07:30:00,
2013-05-03 04:00:00,46.0,41.1,30.18,East,90,0.0,2.0,83,0.00,,---,0.00,0.00,VWS V14.00,2013-05-03 08:00:00,
2013-05-03 04:30:00,44.6,40.1,30.18,East,90,0.0,1.0,84,0.00,,---,0.00,0.00,VWS V14.00,2013-05-03 08:30:00,
2013-05-03 05:00:00,43.4,40.4,30.18,East,90,0.0,4.0,89,0.00,,---,0.00,0.00,VWS V14.00,2013-05-03 09:00:00,
2013-05-03 05:30:00,42.4,39.7,30.18,East,90,0.0,1.0,90,0.00,,---,0.00,0.00,VWS V14.00,2013-05-03 09:30:00,
2013-05-03 06:00:00,41.8,39.1,30.19,ESE,112,0.0,2.0,90,0.00,,---,0.00,0.00,VWS V14.00,2013-05-03 10:00:00,
2013-05-03 06:30:00,42.3,39.9,30.19,ESE,112,0.0,2.0,91,0.00,,---,0.00,2.00,VWS V14.00,2013-05-03 10:30:00,
2013-05-03 07:00:00,41.6,39.2,30.20,ESE,112,0.0,2.0,91,0.00,,---,0.00,15.00,VWS V14.00,2013-05-03 11:00:00,
2013-05-03 07:30:00,40.9,39.0,30.21,ESE,112,0.0,0.0,93,0.00,,---,0.00,36.00,VWS V14.00,2013-05-03 11:30:00,
2013-05-03 08:00:00,45.0,43.9,30.21,ESE,112,0.0,2.0,96,0.00,,---,0.00,91.00,VWS V14.00,2013-05-03 12:00:00,
2013-05-03 08:30:00,51.1,45.2,30.21,ESE,112,0.0,4.0,80,0.00,,---,0.00,235.00,VWS V14.00,2013-05-03 12:30:00,
2013-05-03 09:00:00,60.1,44.4,30.20,ESE,112,3.0,12.0,56,0.00,,---,0.00,433.00,VWS V14.00,2013-05-03 13:00:00,
2013-05-03 09:30:00,63.1,43.1,30.20,East,90,3.0,12.0,48,0.00,,---,0.00,477.00,VWS V14.00,2013-05-03 13:30:00,
2013-05-03 10:00:00,65.1,42.7,30.21,South,180,3.0,11.0,44,0.00,,---,0.00,601.00,VWS V14.00,2013-05-03 14:00:00,
2013-05-03 10:30:00,67.3,42.2,30.21,ESE,112,3.0,9.0,40,0.00,,---,0.00,699.00,VWS V14.00,2013-05-03 14:30:00,
2013-05-03 11:00:00,67.8,39.2,30.20,ESE,112,5.0,14.0,35,0.00,,---,0.00,774.00,VWS V14.00,2013-05-03 15:00:00,
2013-05-03 11:30:00,68.1,40.9,30.19,East,90,6.0,18.0,37,0.00,,---,0.00,817.00,VWS V14.00,2013-05-03 15:30:00,
2013-05-03 12:00:00,69.1,38.0,30.19,ESE,112,7.0,18.0,32,0.00,,---,0.00,865.00,VWS V14.00,2013-05-03 16:00:00,
2013-05-03 12:30:00,71.0,40.5,30.18,ESE,112,6.0,17.0,33,0.00,,---,0.00,941.00,VWS V14.00,2013-05-03 16:30:00,
2013-05-03 13:00:00,71.8,42.0,30.17,ESE,112,6.0,21.0,34,0.00,,---,0.00,965.00,VWS V14.00,2013-05-03 17:00:00,
2013-05-03 13:30:00,71.5,43.9,30.16,East,90,7.0,19.0,37,0.00,,---,0.00,967.00,VWS V14.00,2013-05-03 17:30:00,
2013-05-03 14:00:00,72.4,44.7,30.15,East,90,7.0,19.0,37,0.00,,---,0.00,972.00,VWS V14.00,2013-05-03 18:00:00,
2013-05-03 14:30:00,73.2,46.8,30.14,East,90,6.0,16.0,39,0.00,,---,0.00,937.00,VWS V14.00,2013-05-03 18:30:00,
2013-05-03 15:00:00,73.7,49.2,30.14,East,90,5.0,16.0,42,0.00,,---,0.00,898.00,VWS V14.00,2013-05-03 19:00:00,
2013-05-03 15:30:00,74.4,49.2,30.12,ESE,112,5.0,18.0,41,0.00,,---,0.00,847.00,VWS V14.00,2013-05-03 19:30:00,
2013-05-03 16:00:00,74.4,45.7,30.11,East,90,6.0,21.0,36,0.00,,---,0.00,792.00,VWS V14.00,2013-05-03 20:00:00,
2013-05-03 16:30:00,74.1,46.2,30.11,ESE,112,7.0,18.0,37,0.00,,---,0.00,714.00,VWS V14.00,2013-05-03 20:30:00,
2013-05-03 17:00:00,73.5,45.7,30.11,ESE,112,6.0,19.0,37,0.00,,---,0.00,630.00,VWS V14.00,2013-05-03 21:00:00,
2013-05-03 17:30:00,73.5,46.4,30.11,ESE,112,5.0,19.0,38,0.00,,---,0.00,520.00,VWS V14.00,2013-05-03 21:30:00,
2013-05-03 18:00:00,72.7,45.7,30.11,ESE,112,5.0,17.0,38,0.00,,---,0.00,405.00,VWS V14.00,2013-05-03 22:00:00,
2013-05-03 18:30:00,71.7,46.1,30.10,East,90,4.0,15.0,40,0.00,,---,0.00,136.00,VWS V14.00,2013-05-03 22:30:00,
2013-05-03 19:00:00,69.6,46.8,30.11,ESE,112,6.0,16.0,44,0.00,,---,0.00,89.00,VWS V14.00,2013-05-03 23:00:00,
2013-05-03 19:30:00,68.1,47.1,30.12,ESE,112,6.0,14.0,47,0.00,,---,0.00,72.00,VWS V14.00,2013-05-03 23:30:00,
2013-05-03 20:00:00,66.6,46.9,30.13,ESE,112,6.0,15.0,49,0.00,,---,0.00,36.00,VWS V14.00,2013-05-04 00:00:00,
2013-05-03 20:30:00,65.1,46.5,30.14,ESE,112,6.0,16.0,51,0.00,,---,0.00,4.00,VWS V14.00,2013-05-04 00:30:00,
2013-05-03 21:00:00,63.9,46.0,30.15,ESE,112,5.0,15.0,52,0.00,,---,0.00,0.00,VWS V14.00,2013-05-04 01:00:00,
2013-05-03 21:30:00,62.6,45.7,30.16,ESE,112,4.0,9.0,54,0.00,,---,0.00,0.00,VWS V14.00,2013-05-04 01:30:00,
2013-05-03 22:00:00,61.4,45.6,30.16,ESE,112,3.0,9.0,56,0.00,,---,0.00,0.00,VWS V14.00,2013-05-04 02:00:00,
2013-05-03 22:30:00,60.8,45.0,30.17,ESE,112,3.0,8.0,56,0.00,,---,0.00,0.00,VWS V14.00,2013-05-04 02:30:00,
2013-05-03 23:00:00,60.1,44.8,30.17,ESE,112,2.0,6.0,57,0.00,,---,0.00,0.00,VWS V14.00,2013-05-04 03:00:00,
2013-05-03 23:30:00,58.9,43.7,30.17,ESE,112,1.0,5.0,57,0.00,,---,0.00,0.00,VWS V14.00,2013-05-04 03:30:00,